Terminal Aerodrome Forecast
Issued by NWS Cleveland, OH

Home | Current Version | Previous Version | Graphics & Text | Print | Product List | Glossary Off
Versions: 1 2 3 4 5 6 7 8 9 10 11 12 13 14 15 16 17

871
FTUS41 KCLE 291140
TAFCAK
TAF
KCAK 291140Z 2912/3012 24003KT 3SM BR OVC006
      TEMPO 2912/2914 OVC002
     FM291400 VRB03KT P6SM BKN012
     FM291700 VRB03KT P6SM BKN045
     FM292000 34005KT P6SM VCTS BKN045CB
      TEMPO 2920/2923 4SM -SHRA BR BKN030 OVC050
     FM300000 08004KT P6SM SCT060 BKN120=

USA.gov is the U.S. government's official web portal to all federal, state and local government web resources and services.